createdAt,value
2018-11-25T00:00:24.962Z,30.10
2018-11-25T00:02:53.667Z,28.00
2018-11-25T00:05:22.204Z,30.83
2018-11-25T00:07:50.739Z,30.27
2018-11-25T00:10:19.248Z,30.50
2018-11-25T00:12:47.815Z,30.43
2018-11-25T00:15:16.512Z,29.80
2018-11-25T00:17:45.034Z,31.03
2018-11-25T00:20:14.336Z,30.10
2018-11-25T00:22:43.537Z,31.20
2018-11-25T00:25:13.286Z,31.37
2018-11-25T00:27:41.814Z,30.40
2018-11-25T00:30:13.649Z,30.90
2018-11-25T00:32:42.256Z,30.60
2018-11-25T00:35:11.977Z,30.37
2018-11-25T00:37:47.537Z,31.57
2018-11-25T00:40:10.814Z,32.30
2018-11-25T00:42:39.514Z,31.33
2018-11-25T00:45:12.611Z,29.83
2018-11-25T00:47:41.400Z,29.37
2018-11-25T00:50:11.420Z,31.90
2018-11-25T00:52:40.122Z,31.47
2018-11-25T00:55:10.435Z,29.77
2018-11-25T00:57:39.034Z,30.10
2018-11-25T01:00:14.543Z,31.00
2018-11-25T01:02:43.196Z,30.60
2018-11-25T01:05:12.161Z,30.40
2018-11-25T01:07:40.770Z,29.50
2018-11-25T01:10:10.909Z,28.70
2018-11-25T01:12:39.599Z,28.97
2018-11-25T01:15:11.091Z,35.90
2018-11-25T01:17:39.732Z,30.10
2018-11-25T01:20:10.877Z,32.03
2018-11-25T01:22:39.663Z,32.17
2018-11-25T01:25:09.395Z,30.50
2018-11-25T01:27:38.004Z,31.13
2018-11-25T01:30:10.364Z,29.57
2018-11-25T01:32:38.966Z,29.27
2018-11-25T01:35:08.770Z,29.93
2018-11-25T01:37:37.536Z,27.97
2018-11-25T01:40:09.024Z,28.17
2018-11-25T01:42:38.011Z,30.73
2018-11-25T01:45:07.924Z,28.30
2018-11-25T01:47:36.440Z,30.03
2018-11-25T01:50:06.887Z,30.23
2018-11-25T01:52:35.443Z,27.93
2018-11-25T01:55:04.068Z,28.80
2018-11-25T01:57:32.599Z,29.20
2018-11-25T02:00:01.325Z,29.63
2018-11-25T02:02:29.968Z,29.50
2018-11-25T02:04:58.623Z,28.90
2018-11-25T02:07:27.272Z,29.27
2018-11-25T02:09:55.841Z,28.63
2018-11-25T02:12:24.371Z,28.77
2018-11-25T02:14:53.027Z,27.10
2018-11-25T02:17:21.640Z,28.00
2018-11-25T02:19:50.301Z,27.60
2018-11-25T02:22:18.881Z,28.97
2018-11-25T02:24:47.430Z,28.37
2018-11-25T02:27:15.915Z,28.13
2018-11-25T02:29:44.537Z,27.97
2018-11-25T02:32:13.089Z,26.33
2018-11-25T02:34:41.648Z,26.40
2018-11-25T02:37:10.161Z,25.53
2018-11-25T02:39:38.779Z,26.07
2018-11-25T02:42:07.339Z,26.83
2018-11-25T02:44:35.841Z,26.57
2018-11-25T02:47:04.357Z,26.23
2018-11-25T02:49:32.853Z,26.93
2018-11-25T02:52:01.439Z,25.07
2018-11-25T02:54:30.117Z,26.67
2018-11-25T02:56:58.640Z,24.17
2018-11-25T02:59:27.312Z,26.33
2018-11-25T03:01:55.815Z,24.87
2018-11-25T03:04:24.474Z,24.90
2018-11-25T03:06:53.011Z,25.27
2018-11-25T03:09:21.793Z,23.27
2018-11-25T03:11:50.366Z,23.00
2018-11-25T03:14:19.013Z,23.70
2018-11-25T03:16:47.529Z,22.63
2018-11-25T03:19:16.137Z,23.20
2018-11-25T03:21:44.733Z,22.80
2018-11-25T03:24:13.353Z,23.00
2018-11-25T03:26:41.973Z,21.67
2018-11-25T03:29:10.512Z,20.70
2018-11-25T03:31:39.102Z,22.47
2018-11-25T03:34:07.610Z,21.03
2018-11-25T03:36:36.144Z,21.87
2018-11-25T03:39:06.298Z,19.77
2018-11-25T03:41:34.816Z,19.63
2018-11-25T03:44:03.326Z,18.83
2018-11-25T03:46:31.853Z,19.73
2018-11-25T03:49:00.393Z,20.17
2018-11-25T03:51:29.032Z,19.97
2018-11-25T03:53:57.595Z,21.57
2018-11-25T03:56:26.381Z,19.87
2018-11-25T03:58:54.970Z,19.57
2018-11-25T04:01:23.585Z,21.97
2018-11-25T04:03:52.096Z,18.93
2018-11-25T04:06:20.654Z,20.20
2018-11-25T04:08:49.335Z,20.27
2018-11-25T04:11:17.972Z,19.43
2018-11-25T04:13:46.476Z,19.23
2018-11-25T04:16:15.132Z,20.20
2018-11-25T04:18:43.713Z,19.03
2018-11-25T04:21:15.050Z,18.60
2018-11-25T04:23:44.000Z,19.60
2018-11-25T04:26:12.533Z,20.43
2018-11-25T04:28:41.124Z,18.47
2018-11-25T04:31:09.691Z,19.97
2018-11-25T04:33:38.364Z,18.90
2018-11-25T04:36:06.918Z,19.03
2018-11-25T04:38:35.510Z,20.17
2018-11-25T04:41:04.069Z,19.77
2018-11-25T04:43:32.777Z,19.27
2018-11-25T04:46:01.556Z,19.97
2018-11-25T04:48:30.088Z,19.77
2018-11-25T04:50:58.648Z,19.27
2018-11-25T04:53:27.184Z,17.57
2018-11-25T04:55:55.943Z,17.80
2018-11-25T04:58:24.455Z,18.77
2018-11-25T05:00:53.126Z,18.17
2018-11-25T05:03:21.689Z,17.87
2018-11-25T05:05:50.411Z,18.67
2018-11-25T05:08:19.068Z,18.50
2018-11-25T05:10:47.915Z,16.57
2018-11-25T05:13:16.514Z,19.17
2018-11-25T05:15:45.093Z,18.57
2018-11-25T05:18:13.910Z,17.90
2018-11-25T05:20:42.546Z,17.90
2018-11-25T05:23:11.160Z,18.23
2018-11-25T05:25:39.886Z,19.43
2018-11-25T05:28:08.438Z,17.40
2018-11-25T05:30:36.956Z,18.60
2018-11-25T05:33:05.534Z,17.40
2018-11-25T05:35:34.056Z,18.17
2018-11-25T05:38:02.618Z,17.00
2018-11-25T05:40:31.291Z,18.53
2018-11-25T05:42:59.811Z,18.23
2018-11-25T05:45:28.655Z,18.63
2018-11-25T05:47:57.493Z,17.27
2018-11-25T05:50:26.038Z,18.03
2018-11-25T05:52:54.753Z,18.27
2018-11-25T05:55:23.297Z,17.57
2018-11-25T05:57:52.070Z,18.00
2018-11-25T06:00:32.513Z,17.53
2018-11-25T06:03:01.719Z,17.60
2018-11-25T06:05:30.358Z,17.20
2018-11-25T06:07:58.889Z,17.67
2018-11-25T06:10:27.480Z,17.13
2018-11-25T06:12:56.075Z,17.40
2018-11-25T06:15:24.589Z,16.77
2018-11-25T06:17:53.091Z,16.50
2018-11-25T06:20:21.683Z,16.70
2018-11-25T06:22:50.278Z,17.97
2018-11-25T06:25:20.146Z,16.87
2018-11-25T06:27:48.803Z,16.90
2018-11-25T06:30:19.160Z,17.10
2018-11-25T06:32:47.756Z,18.03
2018-11-25T06:35:17.175Z,17.23
2018-11-25T06:37:45.696Z,16.13
2018-11-25T06:40:16.472Z,15.87
2018-11-25T06:42:45.040Z,16.10
2018-11-25T06:45:15.056Z,16.03
2018-11-25T06:47:43.744Z,17.40
2018-11-25T06:50:12.939Z,16.23
2018-11-25T06:52:41.514Z,15.30
2018-11-25T06:55:12.230Z,16.03
2018-11-25T06:57:40.828Z,17.13
2018-11-25T07:00:15.502Z,15.60
2018-11-25T07:02:44.073Z,16.13
2018-11-25T07:05:12.671Z,15.27
2018-11-25T07:07:41.203Z,14.43
2018-11-25T07:10:11.487Z,14.73
2018-11-25T07:12:40.225Z,15.47
2018-11-25T07:15:13.191Z,15.23
2018-11-25T07:17:41.750Z,15.20
2018-11-25T07:20:11.557Z,16.03
2018-11-25T07:22:40.054Z,14.93
2018-11-25T07:25:13.814Z,15.07
2018-11-25T07:27:42.442Z,15.47
2018-11-25T07:30:27.769Z,14.83
2018-11-25T07:32:56.563Z,14.50
2018-11-25T07:35:26.201Z,14.90
2018-11-25T07:37:54.833Z,15.87
2018-11-25T07:40:24.086Z,15.97
2018-11-25T07:42:52.601Z,15.30
2018-11-25T07:45:29.767Z,15.33
2018-11-25T07:47:50.978Z,15.97
2018-11-25T07:50:19.576Z,16.23
2018-11-25T07:52:48.807Z,15.70
2018-11-25T07:55:18.436Z,14.33
2018-11-25T07:57:47.372Z,17.80
2018-11-25T08:00:17.095Z,16.53
2018-11-25T08:02:45.632Z,15.30
2018-11-25T08:05:15.490Z,14.93
2018-11-25T08:07:43.978Z,19.42
2018-11-25T08:10:15.382Z,16.20
2018-11-25T08:12:44.132Z,16.77
2018-11-25T08:15:14.570Z,16.00
2018-11-25T08:17:43.118Z,15.47
2018-11-25T08:20:13.004Z,15.93
2018-11-25T08:22:41.682Z,15.63
2018-11-25T08:25:14.276Z,16.37
2018-11-25T08:27:42.842Z,16.43
2018-11-25T08:30:14.254Z,17.53
2018-11-25T08:32:42.935Z,16.87
2018-11-25T08:35:12.104Z,16.67
2018-11-25T08:37:40.759Z,16.80
2018-11-25T08:40:14.285Z,16.67
2018-11-25T08:42:42.813Z,17.30
2018-11-25T08:45:12.355Z,17.13
2018-11-25T08:47:40.959Z,16.77
2018-11-25T08:50:18.262Z,16.37
2018-11-25T08:52:48.933Z,17.37
2018-11-25T08:55:24.520Z,17.03
2018-11-25T08:57:53.421Z,16.90
2018-11-25T09:00:23.189Z,17.20
2018-11-25T09:02:52.629Z,18.03
2018-11-25T09:05:21.280Z,16.90
2018-11-25T09:07:49.880Z,16.33
2018-11-25T09:10:19.663Z,18.67
2018-11-25T09:12:56.580Z,17.83
2018-11-25T09:15:27.115Z,19.27
2018-11-25T09:17:55.758Z,18.77
2018-11-25T09:20:24.424Z,18.60
2018-11-25T09:22:53.385Z,17.47
2018-11-25T09:25:23.311Z,18.40
2018-11-25T09:27:52.142Z,17.67
2018-11-25T09:30:23.154Z,18.33
2018-11-25T09:32:51.725Z,19.80
2018-11-25T09:35:20.432Z,19.63
2018-11-25T09:37:49.086Z,18.57
2018-11-25T09:40:22.725Z,17.97
2018-11-25T09:42:51.624Z,19.57
2018-11-25T09:45:20.736Z,18.23
2018-11-25T09:47:49.700Z,19.67
2018-11-25T09:50:20.394Z,18.53
2018-11-25T09:52:48.971Z,19.23
2018-11-25T09:55:19.549Z,20.07
2018-11-25T09:57:55.628Z,20.67
2018-11-25T10:00:27.532Z,19.63
2018-11-25T10:02:56.302Z,19.27
2018-11-25T10:05:24.995Z,20.20
2018-11-25T10:07:53.629Z,20.20
2018-11-25T10:10:23.256Z,20.77
2018-11-25T10:12:52.000Z,20.17
2018-11-25T10:15:21.821Z,20.43
2018-11-25T10:17:50.435Z,20.03
2018-11-25T10:20:21.055Z,20.43
2018-11-25T10:22:49.701Z,20.47
2018-11-25T10:25:18.378Z,20.47
2018-11-25T10:27:47.183Z,19.80
2018-11-25T10:30:21.619Z,19.77
2018-11-25T10:32:55.555Z,21.37
2018-11-25T10:35:24.165Z,20.83
2018-11-25T10:37:52.784Z,21.00
2018-11-25T10:40:22.904Z,21.47
2018-11-25T10:42:51.715Z,20.77
2018-11-25T10:45:22.595Z,21.60
2018-11-25T10:47:51.262Z,20.63
2018-11-25T10:50:20.719Z,22.70
2018-11-25T10:52:49.671Z,21.07
2018-11-25T10:55:19.155Z,20.90
2018-11-25T10:57:49.513Z,21.10
2018-11-25T11:00:34.261Z,22.60
2018-11-25T11:03:08.017Z,20.83
2018-11-25T11:05:42.011Z,21.87
2018-11-25T11:08:10.932Z,23.80
2018-11-25T11:10:39.568Z,22.77
2018-11-25T11:13:08.850Z,22.70
2018-11-25T11:15:37.590Z,21.93
2018-11-25T11:18:06.853Z,21.60
2018-11-25T11:20:35.485Z,22.67
2018-11-25T11:23:04.038Z,23.80
2018-11-25T11:25:32.718Z,22.77
2018-11-25T11:28:01.368Z,24.30
2018-11-25T11:30:29.944Z,36.03
2018-11-25T11:32:58.597Z,23.10
2018-11-25T11:35:27.244Z,25.57
2018-11-25T11:37:55.773Z,25.63
2018-11-25T11:40:24.418Z,24.00
2018-11-25T11:42:53.024Z,23.47
2018-11-25T11:45:21.595Z,25.07
2018-11-25T11:47:50.673Z,27.33
2018-11-25T11:50:20.802Z,25.27
2018-11-25T11:52:49.429Z,24.67
2018-11-25T11:55:18.713Z,26.37
2018-11-25T11:57:48.210Z,27.17
2018-11-25T12:00:25.947Z,27.63
2018-11-25T12:02:54.544Z,26.17
2018-11-25T12:05:23.208Z,26.10
2018-11-25T12:07:51.814Z,27.60
2018-11-25T12:10:20.705Z,25.47
2018-11-25T12:12:49.407Z,27.20
2018-11-25T12:15:29.928Z,25.93
2018-11-25T12:17:51.220Z,28.00
2018-11-25T12:20:21.433Z,27.53
2018-11-25T12:22:51.218Z,26.87
2018-11-25T12:25:19.944Z,27.97
2018-11-25T12:27:49.524Z,27.53
2018-11-25T12:30:18.239Z,25.63
2018-11-25T12:32:48.533Z,27.27
2018-11-25T12:35:18.008Z,28.70
2018-11-25T12:37:46.701Z,27.77
2018-11-25T12:40:18.765Z,26.57
2018-11-25T12:42:48.727Z,27.47
2018-11-25T12:45:18.245Z,26.77
2018-11-25T12:47:46.942Z,27.70
2018-11-25T12:50:21.213Z,27.33
2018-11-25T12:52:49.940Z,27.37
2018-11-25T12:55:19.871Z,28.93
2018-11-25T12:57:48.726Z,29.90
2018-11-25T13:00:25.863Z,27.90
2018-11-25T13:02:55.628Z,26.93
2018-11-25T13:05:24.250Z,28.17
2018-11-25T13:07:53.066Z,28.00
2018-11-25T13:10:21.667Z,28.90
2018-11-25T13:12:50.289Z,26.87
2018-11-25T13:15:18.941Z,26.37
2018-11-25T13:17:48.563Z,26.33
2018-11-25T13:20:17.602Z,27.13
2018-11-25T13:22:46.198Z,26.77
2018-11-25T13:25:16.059Z,26.77
2018-11-25T13:27:44.899Z,28.17
2018-11-25T13:30:20.212Z,27.33
2018-11-25T13:32:48.024Z,29.97
2018-11-25T13:35:16.821Z,26.37
2018-11-25T13:37:45.509Z,28.37
2018-11-25T13:40:15.121Z,28.20
2018-11-25T13:42:43.819Z,28.67
2018-11-25T13:45:12.527Z,31.47
2018-11-25T13:47:41.181Z,29.73
2018-11-25T13:50:12.033Z,29.60
2018-11-25T13:52:40.864Z,30.53
2018-11-25T13:55:14.427Z,29.40
2018-11-25T13:57:43.012Z,30.87
2018-11-25T14:01:17.889Z,29.63
2018-11-25T14:03:46.614Z,29.73
2018-11-25T14:06:15.760Z,28.33
2018-11-25T14:08:46.958Z,29.90
2018-11-25T14:11:15.946Z,31.80
2018-11-25T14:13:45.312Z,30.43
2018-11-25T14:16:16.802Z,30.33
2018-11-25T14:18:45.464Z,30.90
2018-11-25T14:21:15.670Z,32.57
2018-11-25T14:23:43.044Z,31.73
2018-11-25T14:26:16.272Z,32.40
2018-11-25T14:28:45.364Z,29.83
2018-11-25T14:31:13.956Z,29.83
2018-11-25T14:33:42.570Z,32.63
2018-11-25T14:36:11.269Z,31.00
2018-11-25T14:38:40.184Z,31.73
2018-11-25T14:41:08.745Z,32.30
2018-11-25T14:43:37.569Z,31.80
2018-11-25T14:46:06.304Z,34.23
2018-11-25T14:48:34.976Z,32.57
2018-11-25T14:51:03.627Z,33.20
2018-11-25T14:53:32.402Z,29.80
2018-11-25T14:56:01.112Z,31.47
2018-11-25T14:58:29.802Z,30.97
2018-11-25T15:00:58.384Z,31.00
2018-11-25T15:03:27.076Z,32.03
2018-11-25T15:05:55.737Z,30.70
2018-11-25T15:08:25.954Z,31.57
2018-11-25T15:10:54.581Z,31.90
2018-11-25T15:13:23.173Z,30.67
2018-11-25T15:15:51.842Z,30.73
2018-11-25T15:18:20.499Z,30.37
2018-11-25T15:20:49.244Z,31.00
2018-11-25T15:23:17.863Z,32.00
2018-11-25T15:25:48.506Z,31.87
2018-11-25T15:28:17.226Z,30.73
2018-11-25T15:30:45.910Z,31.10
2018-11-25T15:33:14.599Z,31.53
2018-11-25T15:35:43.266Z,30.43
2018-11-25T15:38:11.936Z,31.73
2018-11-25T15:40:41.129Z,31.27
2018-11-25T15:43:11.069Z,30.43
2018-11-25T15:45:39.845Z,33.07
2018-11-25T15:48:17.696Z,31.33
2018-11-25T15:50:46.463Z,31.80
2018-11-25T15:53:15.356Z,33.90
2018-11-25T15:55:45.643Z,33.47
2018-11-25T15:58:14.291Z,30.93
2018-11-25T16:00:44.871Z,33.50
2018-11-25T16:03:14.527Z,34.00
2018-11-25T16:05:45.791Z,32.40
2018-11-25T16:08:14.475Z,32.90
2018-11-25T16:10:43.025Z,35.57
2018-11-25T16:13:11.700Z,34.97
2018-11-25T16:15:40.463Z,33.97
2018-11-25T16:18:09.135Z,36.13
2018-11-25T16:27:24.326Z,32.27
2018-11-25T16:29:53.033Z,30.80
2018-11-25T16:32:21.860Z,30.67
2018-11-25T16:34:50.502Z,34.17
2018-11-25T16:37:19.121Z,32.97
2018-11-25T16:39:47.868Z,30.73
2018-11-25T16:42:16.517Z,31.93
2018-11-25T16:44:45.115Z,32.83
2018-11-25T16:47:13.834Z,32.07
2018-11-25T16:49:42.522Z,32.77
2018-11-25T16:52:11.165Z,32.17
2018-11-25T16:54:39.891Z,31.17
2018-11-25T16:57:08.577Z,32.70
2018-11-25T16:59:37.197Z,32.57
2018-11-25T17:02:05.988Z,33.67
2018-11-25T17:04:34.752Z,35.40
2018-11-25T17:07:03.450Z,34.03
2018-11-25T17:09:32.106Z,33.20
2018-11-25T17:12:00.737Z,35.30
2018-11-25T17:14:33.810Z,36.23
2018-11-25T17:16:58.259Z,35.60
2018-11-25T17:19:26.893Z,33.20
2018-11-25T17:21:55.735Z,34.50
2018-11-25T17:24:24.484Z,36.10
2018-11-25T17:26:53.230Z,36.10
2018-11-25T17:29:21.808Z,34.37
2018-11-25T17:31:50.349Z,35.53
2018-11-25T17:34:19.130Z,33.47
2018-11-25T17:36:48.279Z,35.17
2018-11-25T17:39:17.254Z,33.93
2018-11-25T17:41:46.113Z,32.47
2018-11-25T17:44:14.734Z,33.17
2018-11-25T17:46:43.325Z,34.43
2018-11-25T17:49:12.073Z,34.23
2018-11-25T17:51:40.876Z,35.47
2018-11-25T17:54:09.674Z,33.63
2018-11-25T17:56:39.309Z,33.67
2018-11-25T17:59:08.156Z,33.23
2018-11-25T18:01:36.876Z,32.80
2018-11-25T18:04:05.770Z,32.90
2018-11-25T18:06:34.453Z,33.43
2018-11-25T18:09:03.275Z,34.13
2018-11-25T18:11:32.003Z,32.23
2018-11-25T18:14:00.655Z,31.63
2018-11-25T18:16:29.395Z,35.17
2018-11-25T18:19:09.035Z,32.93
2018-11-25T18:21:37.719Z,35.27
2018-11-25T18:24:06.609Z,35.30
2018-11-25T18:26:35.534Z,34.93
2018-11-25T18:29:05.209Z,37.17
2018-11-25T18:31:34.733Z,32.97
2018-11-25T18:34:03.769Z,37.23
2018-11-25T18:36:32.541Z,34.27
2018-11-25T18:39:02.332Z,35.47
2018-11-25T18:41:30.960Z,33.57
2018-11-25T18:43:59.746Z,33.87
2018-11-25T18:46:28.454Z,32.87
2018-11-25T18:48:57.217Z,38.40
2018-11-25T18:51:25.845Z,38.67
2018-11-25T18:53:54.589Z,33.93
2018-11-25T18:56:23.414Z,33.70
2018-11-25T18:58:52.183Z,33.63
2018-11-25T19:01:32.627Z,34.73
2018-11-25T19:04:01.619Z,32.30
2018-11-25T19:06:30.261Z,38.03
2018-11-25T19:08:58.881Z,34.03
2018-11-25T19:11:27.797Z,32.50
2018-11-25T19:13:56.417Z,31.03
2018-11-25T19:16:25.186Z,31.33
2018-11-25T19:18:53.882Z,32.83
2018-11-25T19:21:22.550Z,33.83
2018-11-25T19:23:51.770Z,32.87
2018-11-25T19:26:20.367Z,33.80
2018-11-25T19:28:48.952Z,31.17
2018-11-25T19:31:17.583Z,40.60
2018-11-25T19:33:46.237Z,33.37
2018-11-25T19:36:14.937Z,35.13
2018-11-25T19:38:44.259Z,31.67
2018-11-25T19:41:12.996Z,29.97
2018-11-25T19:43:41.625Z,30.67
2018-11-25T19:46:11.117Z,29.83
2018-11-25T19:48:39.947Z,34.77
2018-11-25T19:51:16.785Z,32.20
2018-11-25T19:53:37.522Z,31.63
2018-11-25T19:56:06.402Z,31.00
2018-11-25T19:58:35.278Z,30.87
2018-11-25T20:01:04.161Z,32.20
2018-11-25T20:03:32.864Z,33.37
2018-11-25T20:06:01.780Z,31.70
2018-11-25T20:08:30.390Z,31.13
2018-11-25T20:11:00.816Z,30.33
2018-11-25T20:13:29.370Z,31.43
2018-11-25T20:16:03.482Z,31.90
2018-11-25T20:18:32.216Z,30.27
2018-11-25T20:21:06.963Z,32.07
2018-11-25T20:23:35.974Z,32.60
2018-11-25T20:26:04.602Z,32.53
2018-11-25T20:28:33.333Z,31.13
2018-11-25T20:31:02.788Z,29.50
2018-11-25T20:33:36.736Z,31.83
2018-11-25T20:36:05.855Z,29.47
2018-11-25T20:38:39.501Z,32.90
2018-11-25T20:41:08.285Z,31.57
2018-11-25T20:43:36.955Z,31.13
2018-11-25T20:46:11.405Z,32.00
2018-11-25T20:48:40.195Z,32.93
2018-11-25T20:51:08.816Z,31.83
2018-11-25T20:53:42.765Z,31.80
2018-11-25T20:56:11.442Z,29.77
2018-11-25T20:58:40.074Z,31.10
2018-11-25T21:01:08.777Z,29.50
2018-11-25T21:03:37.475Z,30.17
2018-11-25T21:06:06.367Z,30.43
2018-11-25T21:08:35.044Z,29.97
2018-11-25T21:11:03.653Z,30.90
2018-11-25T21:13:32.317Z,32.57
2018-11-25T21:16:00.945Z,30.73
2018-11-25T21:18:29.582Z,31.30
2018-11-25T21:20:58.182Z,31.10
2018-11-25T21:23:26.964Z,30.23
2018-11-25T21:25:55.508Z,33.10
2018-11-25T21:28:24.077Z,28.87
2018-11-25T21:30:52.724Z,31.00
2018-11-25T21:33:21.273Z,30.10
2018-11-25T21:35:49.946Z,29.80
2018-11-25T21:38:18.652Z,29.87
2018-11-25T21:40:47.393Z,31.63
2018-11-25T21:43:16.042Z,29.37
2018-11-25T21:45:44.633Z,30.63
2018-11-25T21:48:14.959Z,30.03
2018-11-25T21:50:43.518Z,31.77
2018-11-25T21:53:12.271Z,28.90
2018-11-25T21:55:40.893Z,31.70
2018-11-25T21:58:09.457Z,28.83
2018-11-25T22:00:38.238Z,27.93
2018-11-25T22:03:06.868Z,30.50
2018-11-25T22:05:35.632Z,27.13
2018-11-25T22:08:04.514Z,31.03
2018-11-25T22:10:33.228Z,28.63
2018-11-25T22:13:03.176Z,30.03
2018-11-25T22:15:32.018Z,29.03
2018-11-25T22:18:00.922Z,28.97
2018-11-25T22:20:29.808Z,29.97
2018-11-25T22:22:58.561Z,29.67
2018-11-25T22:25:27.154Z,29.17
2018-11-25T22:27:55.824Z,29.67
2018-11-25T22:30:25.000Z,31.43
2018-11-25T22:32:53.747Z,29.57
2018-11-25T22:35:23.481Z,29.77
2018-11-25T22:37:52.219Z,30.47
2018-11-25T22:40:21.353Z,29.60
2018-11-25T22:42:51.014Z,30.80
2018-11-25T22:45:23.500Z,30.93
2018-11-25T22:47:52.134Z,31.37
2018-11-25T22:50:25.546Z,31.13
2018-11-25T22:52:50.997Z,28.73
2018-11-25T22:55:21.022Z,31.97
2018-11-25T22:57:49.731Z,33.23
2018-11-25T23:00:36.852Z,30.17
2018-11-25T23:03:05.756Z,30.77
2018-11-25T23:05:45.665Z,28.47
2018-11-25T23:08:14.362Z,30.20
2018-11-25T23:10:42.991Z,32.50
2018-11-25T23:13:11.663Z,32.87
2018-11-25T23:15:40.382Z,30.67
2018-11-25T23:18:09.070Z,30.93
2018-11-25T23:20:37.818Z,30.07
2018-11-25T23:23:07.228Z,31.70
2018-11-25T23:25:35.846Z,31.83
2018-11-25T23:28:04.460Z,30.63
2018-11-25T23:30:33.099Z,31.90
2018-11-25T23:33:01.650Z,30.20
2018-11-25T23:35:31.474Z,31.83
2018-11-25T23:38:00.033Z,29.37
2018-11-25T23:40:28.587Z,27.80
2018-11-25T23:42:57.298Z,29.43
2018-11-25T23:45:25.848Z,31.37
2018-11-25T23:47:54.577Z,29.67
2018-11-25T23:50:23.221Z,31.50
2018-11-25T23:52:51.766Z,28.77
2018-11-25T23:55:20.381Z,30.13
2018-11-25T23:57:49.064Z,29.83
